Atlanta, Kansas
Current Conditions -  °F | °C
As of 4:55 PM on Thursday 23 Oct 2014 (Local Time) from KEQA Reporting Station
Broken Clouds Broken Clouds  
Wind Chill: 22°   Ceiling: 2300
Heat Index: 22°   Visibility: 10mi
Dew Point: 16°   Wind: 5mph
Humidity: 69%   Direction: 220°SW
Pressure: 30.04"   Gusts: NA
Location:  37.44°N, 96.76°W
Report Text: KEQA 232155Z AUTO 22004KT 10SM BKN023 22/16 A3004 RMK AO2
Loading
Personal Weather Stations






























Interactive Weather Map
Tropical Storm Tracking
New forecast layout! Learn more

10-Day Weather Forecast

Advertisements
Track Severe Weather on mobile